PGUA/UAM METAR and TAF weather

Enter ICAO airport designator
Station Type Date Time Source
PGUA METAR 2019/02/17 15:56 UTC NOAA

PGUA 171556Z 05018G23KT 10SM SCT022 SCT045 25/19 A3000 RMK PK WND 06027/04 SLP149 T02470193 $


Station Type Date Time Source
PGUA Decoded METAR 2019/02/17 15:56 UTC NOAA

Andersen, Mariana Is, Andersen Air Force Base, GU, United States (PGUA) 13-35N 144-56E 187M
Feb 17, 2019 - 10:56 AM EST / 2019.02.17 1556 UTC
Wind: from the NE (050 degrees) at 21 MPH (18 KT) gusting to 26 MPH (23 KT):0
Visibility: 10 mile(s):0
Sky conditions: partly cloudy
Temperature: 76.5 F (24.7 C)
Dew Point: 66.7 F (19.3 C)
Relative Humidity: 71%
Pressure (altimeter): 30 in. Hg (1015 hPa)
ob: PGUA 171556Z 05018G23KT 10SM SCT022 SCT045 25/19 A3000 RMK PK WND 06027/04 SLP149 T02470193
cycle: 16

Station Type Date Time Source
PGUA TAF 2019/02/17 10:09 UTC NOAA

TAF TAF PGUA 171000Z 1710/1816 05017G22KT 9999 SCT020 QNH2993INS TX29/1805Z TN24/1719Z


Example: see airport list